Time;durP1;ratioP1;P1;durP2;ratioP2;P2;SDS_P1;SDS_P2;PMS_P1;PMS_P2;Temp;Humidity;BMP_temperature;BMP_pressure;BME280_temperature;BME280_humidity;BME280_pressure;Samples;Min_cycle;Max_cycle;Signal;HPM_P1;HPM_P2
2020/12/20 00:00:34;;;;;;;19.00;12.80;;;0.30;96.70;;;;;;4990212;28;20022;-77
2020/12/20 00:03:00;;;;;;;19.65;11.90;;;0.30;97.40;;;;;;4990278;28;20532;-77
2020/12/20 00:05:26;;;;;;;19.73;12.82;;;0.50;97.30;;;;;;4990127;28;20018;-77
2020/12/20 00:07:53;;;;;;;19.25;13.18;;;0.50;96.10;;;;;;4991681;28;20030;-77
2020/12/20 00:10:20;;;;;;;18.23;11.80;;;0.50;95.50;;;;;;4991407;28;20018;-77
2020/12/20 00:12:47;;;;;;;17.35;11.85;;;0.30;95.50;;;;;;4990340;28;20029;-77
2020/12/20 00:15:14;;;;;;;20.35;13.02;;;0.20;95.70;;;;;;4991295;28;20030;-77
2020/12/20 00:17:40;;;;;;;21.92;14.07;;;0.30;95.20;;;;;;4991370;28;20031;-77
2020/12/20 00:20:07;;;;;;;22.65;14.02;;;0.20;96.10;;;;;;4990205;28;20556;-77
2020/12/20 00:22:33;;;;;;;24.20;15.77;;;0.50;95.80;;;;;;4991322;28;20038;-77
2020/12/20 00:24:59;;;;;;;21.35;13.85;;;0.40;95.00;;;;;;4989985;28;20027;-77
2020/12/20 00:27:25;;;;;;;21.67;13.80;;;0.30;94.80;;;;;;4989992;28;20022;-77
2020/12/20 00:29:51;;;;;;;18.88;12.23;;;0.20;95.10;;;;;;4990274;28;20509;-77
2020/12/20 00:32:17;;;;;;;19.95;12.20;;;0.30;95.60;;;;;;4989863;28;20022;-77
2020/12/20 00:34:43;;;;;;;18.27;12.95;;;0.30;95.40;;;;;;5003219;28;20033;-78
2020/12/20 00:37:09;;;;;;;18.60;12.10;;;0.50;94.80;;;;;;5010773;28;20385;-77
2020/12/20 00:39:36;;;;;;;15.88;11.85;;;0.60;94.60;;;;;;4993063;28;20072;-76
2020/12/20 00:42:05;;;;;;;19.15;13.00;;;0.70;94.90;;;;;;5010554;28;20113;-76
2020/12/20 00:44:32;;;;;;;19.88;12.98;;;0.70;94.90;;;;;;5009336;28;20096;-77
2020/12/20 00:47:00;;;;;;;17.35;11.52;;;0.70;95.30;;;;;;5009524;28;20022;-77
2020/12/20 00:49:26;;;;;;;18.27;12.90;;;0.70;94.30;;;;;;5009772;28;20048;-77
2020/12/20 00:51:55;;;;;;;17.73;11.52;;;0.50;95.10;;;;;;5009124;28;20026;-77
2020/12/20 00:54:21;;;;;;;19.08;11.60;;;0.60;96.00;;;;;;5009505;28;20026;-77
2020/12/20 00:56:47;;;;;;;20.77;13.18;;;0.80;95.90;;;;;;5011004;28;20033;-77
2020/12/20 00:59:13;;;;;;;21.55;11.40;;;0.90;95.30;;;;;;5010483;28;20030;-76
2020/12/20 01:01:39;;;;;;;19.67;11.75;;;0.80;94.70;;;;;;5010787;28;20088;-78
2020/12/20 01:04:06;;;;;;;15.88;10.85;;;0.80;96.00;;;;;;5008978;28;20033;-77
2020/12/20 01:06:31;;;;;;;18.23;11.70;;;1.00;95.80;;;;;;5013317;28;20025;-77
2020/12/20 01:09:00;;;;;;;17.58;12.18;;;1.00;95.40;;;;;;5013982;28;20478;-77
2020/12/20 01:11:26;;;;;;;16.92;11.35;;;0.90;94.40;;;;;;5014235;28;20014;-77
2020/12/20 01:13:52;;;;;;;16.58;10.70;;;0.70;95.40;;;;;;5013904;28;20030;-76
2020/12/20 01:16:20;;;;;;;19.70;10.63;;;0.70;95.30;;;;;;5012729;28;20423;-77
2020/12/20 01:18:46;;;;;;;16.05;10.30;;;0.60;95.80;;;;;;5014349;28;20096;-77
2020/12/20 01:21:12;;;;;;;14.30;9.85;;;0.60;95.80;;;;;;5013948;28;20030;-77
2020/12/20 01:23:38;;;;;;;17.50;10.88;;;0.70;96.30;;;;;;5013717;28;20508;-77
2020/12/20 01:26:04;;;;;;;19.17;12.00;;;0.70;96.10;;;;;;5014142;28;20027;-77
2020/12/20 01:28:31;;;;;;;14.88;9.98;;;0.80;96.20;;;;;;5014208;28;20033;-76
2020/12/20 01:30:57;;;;;;;17.20;10.95;;;0.90;96.00;;;;;;5013346;28;20044;-77
2020/12/20 01:33:22;;;;;;;17.23;10.55;;;0.80;95.20;;;;;;5011518;28;20034;-78
2020/12/20 01:35:49;;;;;;;17.13;10.82;;;0.80;95.80;;;;;;4994254;28;20121;-77
2020/12/20 01:38:15;;;;;;;16.98;10.95;;;0.60;96.10;;;;;;4993040;28;20088;-77
2020/12/20 01:40:41;;;;;;;19.77;10.52;;;0.60;96.50;;;;;;4992719;28;20034;-77
2020/12/20 01:43:07;;;;;;;15.80;10.80;;;0.40;97.10;;;;;;4992736;28;20026;-77
2020/12/20 01:45:33;;;;;;;20.33;12.55;;;0.20;97.70;;;;;;4992529;28;20089;-77
2020/12/20 01:47:59;;;;;;;19.30;12.30;;;0.10;98.10;;;;;;4992790;28;20027;-77
2020/12/20 01:50:25;;;;;;;19.10;11.35;;;0.20;98.80;;;;;;4993540;28;20023;-76
2020/12/20 01:52:51;;;;;;;15.02;10.30;;;0.50;98.40;;;;;;4992783;28;20030;-76
2020/12/20 01:55:23;;;;;;;16.30;11.38;;;0.60;96.90;;;;;;4993470;28;20026;-78
2020/12/20 01:57:48;;;;;;;15.77;10.55;;;0.70;96.70;;;;;;4993847;28;20050;-77
2020/12/20 02:00:14;;;;;;;16.00;9.45;;;0.80;95.50;;;;;;4992122;28;20081;-76
2020/12/20 02:02:40;;;;;;;17.25;10.45;;;0.40;94.60;;;;;;4976132;28;20026;-76
2020/12/20 02:05:06;;;;;;;14.80;10.02;;;0.10;96.00;;;;;;4993376;28;20077;-76
2020/12/20 02:07:31;;;;;;;18.00;11.20;;;0.00;97.10;;;;;;4993625;28;20034;-77
2020/12/20 02:09:57;;;;;;;17.95;11.90;;;0.00;97.70;;;;;;4992214;28;20072;-77
2020/12/20 02:12:26;;;;;;;17.55;11.27;;;0.00;98.10;;;;;;4993505;28;20505;-76
2020/12/20 02:14:54;;;;;;;16.23;9.43;;;0.10;97.40;;;;;;4991881;28;20030;-76
2020/12/20 02:17:19;;;;;;;19.40;10.82;;;-0.20;97.20;;;;;;4990973;28;20074;-76
2020/12/20 02:19:45;;;;;;;20.40;13.43;;;-0.10;98.70;;;;;;4993399;28;20114;-76
2020/12/20 02:22:11;;;;;;;17.23;10.43;;;0.10;99.40;;;;;;5014348;23;20044;-72
2020/12/20 02:24:37;;;;;;;18.45;10.82;;;0.20;98.70;;;;;;5012195;28;20029;-72
2020/12/20 02:27:02;;;;;;;21.45;12.73;;;0.30;98.20;;;;;;5010384;28;20053;-72
2020/12/20 02:29:29;;;;;;;30.90;15.57;;;0.30;97.20;;;;;;5011700;28;20099;-72
2020/12/20 02:31:55;;;;;;;24.70;14.30;;;0.20;96.30;;;;;;5011984;28;20465;-72
2020/12/20 02:34:21;;;;;;;25.55;13.80;;;0.30;96.90;;;;;;5010804;28;20104;-72
2020/12/20 02:36:47;;;;;;;20.52;12.82;;;0.30;97.50;;;;;;5010700;28;20113;-72
2020/12/20 02:39:13;;;;;;;23.73;12.43;;;0.40;97.70;;;;;;5011120;28;20037;-72
2020/12/20 02:41:38;;;;;;;21.58;12.35;;;0.40;96.80;;;;;;5011211;28;20438;-72
2020/12/20 02:44:04;;;;;;;18.70;11.70;;;0.30;96.50;;;;;;5012340;28;20033;-71
2020/12/20 02:46:30;;;;;;;15.77;10.77;;;0.20;95.80;;;;;;5012550;28;20667;-72
2020/12/20 02:48:57;;;;;;;20.00;12.55;;;0.10;96.90;;;;;;5012515;28;20037;-72
2020/12/20 02:51:23;;;;;;;16.65;11.15;;;0.20;97.50;;;;;;5011037;28;20092;-72
2020/12/20 02:53:49;;;;;;;21.80;11.55;;;0.30;96.30;;;;;;5011110;28;20425;-72
2020/12/20 02:56:14;;;;;;;17.42;11.32;;;0.30;96.10;;;;;;5011209;28;20033;-72
2020/12/20 02:58:40;;;;;;;20.10;11.80;;;0.40;96.50;;;;;;5012066;28;20140;-72
2020/12/20 03:01:06;;;;;;;16.55;11.05;;;0.30;95.30;;;;;;5011069;28;20030;-72
2020/12/20 03:03:32;;;;;;;16.17;10.77;;;0.10;95.00;;;;;;5011978;28;20022;-72
2020/12/20 03:05:58;;;;;;;18.23;11.55;;;0.00;95.90;;;;;;5012201;28;20101;-72
2020/12/20 03:08:24;;;;;;;17.52;11.00;;;-0.10;96.50;;;;;;5012023;28;20026;-72
2020/12/20 03:10:50;;;;;;;17.13;11.23;;;-0.10;97.20;;;;;;5012352;28;20017;-72
2020/12/20 03:13:16;;;;;;;18.90;11.13;;;-0.10;97.80;;;;;;5012153;28;20025;-72
2020/12/20 03:15:43;;;;;;;18.30;10.82;;;-0.30;96.90;;;;;;5012500;28;20466;-72
2020/12/20 03:18:09;;;;;;;18.55;11.80;;;-0.40;97.60;;;;;;5010809;28;20034;-72
2020/12/20 03:20:36;;;;;;;18.73;10.65;;;-0.30;99.90;;;;;;4994917;28;20026;-72
2020/12/20 03:23:04;;;;;;;18.40;11.85;;;-0.20;99.90;;;;;;5010622;28;20034;-71
2020/12/20 03:25:30;;;;;;;18.65;11.48;;;-0.10;98.70;;;;;;5011721;28;20022;-72
2020/12/20 03:27:56;;;;;;;16.05;10.48;;;-0.20;99.90;;;;;;5010268;28;20053;-72
2020/12/20 03:30:22;;;;;;;14.68;9.05;;;-0.20;99.30;;;;;;5012110;28;20056;-72
2020/12/20 03:32:48;;;;;;;16.35;10.25;;;-0.20;98.40;;;;;;5011827;28;20470;-72
2020/12/20 03:35:14;;;;;;;18.30;11.13;;;-0.30;99.90;;;;;;5011430;28;20025;-72
2020/12/20 03:37:48;;;;;;;16.42;10.77;;;-0.50;99.40;;;;;;5010442;28;20033;-72
2020/12/20 03:40:14;;;;;;;18.55;10.55;;;-0.60;99.90;;;;;;5010313;28;20021;-72
2020/12/20 03:42:40;;;;;;;14.70;10.18;;;-0.60;99.90;;;;;;5011716;28;20030;-72
2020/12/20 03:45:05;;;;;;;18.15;10.80;;;-0.60;99.90;;;;;;5010025;28;20022;-71
2020/12/20 03:47:31;;;;;;;15.77;10.43;;;-0.70;99.90;;;;;;5011642;28;20025;-72
2020/12/20 03:49:57;;;;;;;20.48;11.38;;;-0.70;99.90;;;;;;5011276;28;20029;-72
2020/12/20 03:52:22;;;;;;;18.35;11.73;;;-0.60;99.90;;;;;;5011521;28;20097;-72
2020/12/20 03:54:48;;;;;;;17.30;11.30;;;-0.70;99.90;;;;;;4993538;28;20025;-72
2020/12/20 03:57:13;;;;;;;18.98;11.43;;;-0.60;99.90;;;;;;4994005;28;20083;-72
2020/12/20 03:59:39;;;;;;;18.30;12.18;;;-0.50;99.90;;;;;;5011182;28;20048;-72
2020/12/20 04:02:06;;;;;;;17.73;10.65;;;-0.50;99.50;;;;;;5010299;28;20022;-72
2020/12/20 04:04:32;;;;;;;16.00;10.95;;;-0.60;99.10;;;;;;5009750;28;20505;-72
2020/12/20 04:06:58;;;;;;;17.33;10.95;;;-0.50;99.50;;;;;;5011334;28;20022;-72
2020/12/20 04:09:24;;;;;;;13.57;10.00;;;-0.50;98.50;;;;;;4993580;28;20033;-72
2020/12/20 04:11:50;;;;;;;17.55;11.55;;;-0.40;98.10;;;;;;4993439;28;20022;-72
2020/12/20 04:14:15;;;;;;;18.48;11.10;;;-0.50;99.10;;;;;;4993578;28;20037;-72
2020/12/20 04:16:41;;;;;;;19.95;10.57;;;-0.40;98.80;;;;;;4993468;28;20054;-72
2020/12/20 04:19:07;;;;;;;18.35;10.88;;;-0.30;99.80;;;;;;5009965;28;20470;-72
2020/12/20 04:21:32;;;;;;;15.50;10.57;;;-0.30;98.40;;;;;;5010864;28;20036;-72
2020/12/20 04:23:58;;;;;;;17.60;11.55;;;-0.30;97.80;;;;;;5010006;28;20036;-72
2020/12/20 04:26:24;;;;;;;14.27;9.10;;;-0.40;97.20;;;;;;5009501;28;20052;-72
2020/12/20 04:28:50;;;;;;;17.08;10.38;;;-0.40;96.90;;;;;;5011134;28;20022;-72
2020/12/20 04:31:15;;;;;;;16.65;10.25;;;-0.50;97.30;;;;;;5009726;28;20105;-72
2020/12/20 04:33:41;;;;;;;14.82;9.75;;;-0.60;98.20;;;;;;5011023;28;20110;-72
2020/12/20 04:36:08;;;;;;;15.43;10.00;;;-0.50;98.60;;;;;;5010873;28;20289;-72
2020/12/20 04:38:34;;;;;;;14.38;9.45;;;-0.50;98.10;;;;;;5009842;28;20674;-72
2020/12/20 04:41:01;;;;;;;17.63;10.55;;;-0.60;98.70;;;;;;5011475;28;20092;-72
2020/12/20 04:43:27;;;;;;;15.10;10.38;;;-0.60;99.50;;;;;;5013540;28;20057;-72
2020/12/20 04:45:53;;;;;;;15.13;9.55;;;-0.50;99.00;;;;;;5014457;28;20049;-72
2020/12/20 04:48:20;;;;;;;16.73;10.02;;;-0.50;98.30;;;;;;5014735;28;20450;-72
2020/12/20 04:50:47;;;;;;;18.30;9.27;;;-0.40;98.30;;;;;;5013320;28;20031;-71
2020/12/20 04:53:13;;;;;;;13.40;9.55;;;-0.40;97.80;;;;;;5013326;28;20448;-71
2020/12/20 04:55:39;;;;;;;17.50;9.95;;;-0.30;97.90;;;;;;5014640;28;20048;-72
2020/12/20 04:58:05;;;;;;;16.60;10.07;;;-0.30;97.60;;;;;;5014512;28;20018;-72
2020/12/20 05:00:31;;;;;;;14.98;10.15;;;-0.20;96.30;;;;;;5013787;28;20022;-72
2020/12/20 05:02:57;;;;;;;15.45;9.98;;;-0.30;96.80;;;;;;5014627;28;20026;-72
2020/12/20 05:05:23;;;;;;;16.20;10.27;;;-0.30;97.00;;;;;;5014397;28;20033;-72
2020/12/20 05:07:50;;;;;;;16.15;10.38;;;-0.20;97.50;;;;;;5014137;28;20030;-72
2020/12/20 05:10:16;;;;;;;15.38;9.25;;;-0.20;97.30;;;;;;5014377;28;20069;-72
2020/12/20 05:12:42;;;;;;;14.57;9.20;;;0.00;97.20;;;;;;5014203;28;20053;-72
2020/12/20 05:15:22;;;;;;;14.80;9.60;;;-0.10;95.60;;;;;;5014431;28;20436;-72
2020/12/20 05:17:48;;;;;;;19.70;10.75;;;-0.10;96.70;;;;;;5014119;28;20040;-72
2020/12/20 05:20:35;;;;;;;18.27;11.15;;;0.00;97.30;;;;;;4996766;28;20025;-72
2020/12/20 05:23:01;;;;;;;16.70;10.95;;;0.00;96.90;;;;;;4996308;28;20033;-72
2020/12/20 05:25:29;;;;;;;17.45;10.93;;;0.00;96.60;;;;;;5012494;28;20124;-72
2020/12/20 05:28:24;;;;;;;17.60;10.23;;;0.00;96.20;;;;;;5012724;28;20501;-72
2020/12/20 05:30:50;;;;;;;18.52;11.18;;;0.10;97.40;;;;;;5000335;28;20037;-72
2020/12/20 05:33:26;;;;;;;16.52;11.93;;;0.00;97.40;;;;;;5013863;28;20022;-73
2020/12/20 05:36:08;;;;;;;19.52;11.75;;;0.00;98.00;;;;;;5012512;28;20432;-72
2020/12/20 05:38:36;;;;;;;17.05;12.05;;;-0.10;98.90;;;;;;5012308;28;20026;-71
2020/12/20 05:41:02;;;;;;;18.15;11.48;;;-0.10;97.00;;;;;;5012507;28;20050;-71
2020/12/20 05:43:29;;;;;;;18.10;11.45;;;-0.10;98.80;;;;;;5012159;28;20034;-72
2020/12/20 05:45:57;;;;;;;16.15;10.43;;;-0.10;99.40;;;;;;5013692;28;20053;-72
2020/12/20 05:48:25;;;;;;;16.15;10.43;;;-0.20;99.40;;;;;;5013752;28;20022;-73
2020/12/20 05:50:59;;;;;;;16.25;10.18;;;-0.10;99.70;;;;;;5013477;28;20033;-73
2020/12/20 05:53:30;;;;;;;15.88;10.77;;;0.00;99.40;;;;;;5012435;28;20430;-71
2020/12/20 05:55:57;;;;;;;16.65;10.15;;;0.10;99.00;;;;;;5012157;28;20449;-71
2020/12/20 05:58:25;;;;;;;15.85;10.27;;;0.20;98.10;;;;;;4995766;28;20029;-71
2020/12/20 06:00:50;;;;;;;15.40;10.07;;;0.30;97.70;;;;;;5013176;28;20067;-71
2020/12/20 06:03:16;;;;;;;17.55;10.70;;;0.40;97.20;;;;;;4995721;28;20018;-71
2020/12/20 06:05:46;;;;;;;15.52;9.40;;;0.40;96.80;;;;;;5011786;28;20022;-71
2020/12/20 06:08:13;;;;;;;16.05;10.27;;;0.30;96.60;;;;;;5013272;28;20026;-71
2020/12/20 06:10:45;;;;;;;15.52;10.27;;;0.30;97.50;;;;;;4995707;28;20029;-71
2020/12/20 06:13:13;;;;;;;15.85;9.93;;;0.10;95.80;;;;;;5013396;28;20018;-71
2020/12/20 06:15:41;;;;;;;18.27;11.60;;;-0.10;98.60;;;;;;5012788;28;20025;-71
2020/12/20 06:18:21;;;;;;;20.83;11.07;;;-0.10;99.00;;;;;;5012003;28;20069;-71
2020/12/20 06:20:56;;;;;;;21.00;13.60;;;-0.10;99.50;;;;;;5011791;28;20608;-71
2020/12/20 06:23:23;;;;;;;17.70;10.90;;;-0.10;97.90;;;;;;5011807;28;20444;-71
2020/12/20 06:25:50;;;;;;;18.08;11.32;;;-0.30;97.80;;;;;;5011453;28;20056;-71
2020/12/20 06:28:21;;;;;;;16.65;10.95;;;-0.40;98.10;;;;;;5011916;28;20018;-71
2020/12/20 06:30:48;;;;;;;23.80;11.68;;;-0.50;98.70;;;;;;4995199;28;20026;-71
2020/12/20 06:33:20;;;;;;;23.05;11.85;;;-0.50;99.90;;;;;;5013116;28;20058;-71
2020/12/20 06:35:50;;;;;;;27.25;12.60;;;-0.50;99.90;;;;;;5012697;28;20025;-70
2020/12/20 06:38:19;;;;;;;37.72;13.13;;;-0.60;99.90;;;;;;5011904;28;20092;-71
2020/12/20 06:40:45;;;;;;;60.63;13.05;;;-0.60;99.90;;;;;;5012878;28;20499;-70
2020/12/20 06:43:11;;;;;;;48.67;13.07;;;-0.50;99.90;;;;;;5011935;28;20093;-70
2020/12/20 06:45:43;;;;;;;59.80;16.65;;;-0.50;99.90;;;;;;5011411;28;20092;-71
2020/12/20 06:48:09;;;;;;;33.95;12.95;;;-0.50;99.90;;;;;;5012537;28;20104;-71
2020/12/20 06:50:38;;;;;;;34.92;14.07;;;-0.60;99.90;;;;;;5011513;28;20036;-71
2020/12/20 06:53:05;;;;;;;33.42;12.52;;;-0.50;99.90;;;;;;5012297;28;20025;-71
2020/12/20 06:55:31;;;;;;;43.10;15.50;;;-0.40;99.90;;;;;;5012542;28;20362;-71
2020/12/20 06:58:03;;;;;;;41.60;14.23;;;-0.50;99.90;;;;;;4994729;28;20068;-71
2020/12/20 07:00:44;;;;;;;51.50;14.10;;;-0.40;99.90;;;;;;4994845;28;20065;-71
2020/12/20 07:03:20;;;;;;;42.85;13.18;;;-0.50;99.90;;;;;;5010488;28;20497;-71
2020/12/20 07:05:48;;;;;;;30.08;13.13;;;-0.40;99.90;;;;;;5012303;28;20477;-71
2020/12/20 07:08:20;;;;;;;49.83;13.90;;;-0.30;99.90;;;;;;5012077;28;20022;-71
2020/12/20 07:10:51;;;;;;;72.05;14.15;;;-0.20;99.90;;;;;;5010935;28;20076;-71
2020/12/20 07:13:37;;;;;;;62.58;15.65;;;-0.30;99.90;;;;;;5012085;28;20556;-71
2020/12/20 07:16:16;;;;;;;41.35;15.65;;;-0.30;99.90;;;;;;4994356;28;20116;-71
2020/12/20 07:19:01;;;;;;;50.10;14.40;;;-0.40;99.90;;;;;;5010434;28;20532;-71
2020/12/20 07:21:30;;;;;;;32.22;14.95;;;-0.50;99.90;;;;;;4994110;28;20172;-71
2020/12/20 07:24:18;;;;;;;39.60;14.02;;;-0.50;99.90;;;;;;5010357;28;20048;-71
2020/12/20 07:26:44;;;;;;;44.90;15.32;;;-0.30;99.90;;;;;;4994240;28;20437;-71
2020/12/20 07:29:10;;;;;;;60.78;15.77;;;0.00;99.90;;;;;;5011356;28;20382;-71
2020/12/20 07:31:36;;;;;;;49.80;15.50;;;-0.10;99.90;;;;;;5011840;28;20026;-71
2020/12/20 07:34:05;;;;;;;86.88;16.88;;;-0.10;99.90;;;;;;5010887;28;20022;-71
2020/12/20 07:36:31;;;;;;;53.13;15.88;;;0.00;99.90;;;;;;5010162;28;20037;-71
2020/12/20 07:38:57;;;;;;;45.53;17.48;;;0.00;99.90;;;;;;5011056;28;20018;-71
2020/12/20 07:41:24;;;;;;;40.70;15.27;;;-0.10;99.90;;;;;;5011489;28;20419;-71
2020/12/20 07:43:51;;;;;;;51.83;16.05;;;-0.10;99.90;;;;;;4993420;28;20477;-71
2020/12/20 07:46:18;;;;;;;29.88;15.45;;;-0.10;99.90;;;;;;5009941;28;20045;-71
2020/12/20 07:48:44;;;;;;;47.67;17.30;;;0.00;99.90;;;;;;5009880;28;20502;-71
2020/12/20 07:51:21;;;;;;;39.25;15.63;;;0.00;99.90;;;;;;5011307;28;20358;-71
2020/12/20 07:53:48;;;;;;;37.67;16.08;;;0.20;99.90;;;;;;5010113;28;20072;-71
2020/12/20 07:56:35;;;;;;;36.05;16.25;;;0.20;99.90;;;;;;4993417;28;20052;-71
2020/12/20 07:59:03;;;;;;;38.42;15.95;;;0.00;99.90;;;;;;5010132;28;20036;-71
2020/12/20 08:01:29;;;;;;;33.08;15.05;;;0.10;99.90;;;;;;5009903;28;20461;-71
2020/12/20 08:04:07;;;;;;;39.45;15.60;;;0.10;99.90;;;;;;5009962;28;20057;-71
2020/12/20 08:06:41;;;;;;;36.70;15.32;;;0.20;99.90;;;;;;5009560;28;20121;-71
2020/12/20 08:09:13;;;;;;;34.28;15.18;;;0.30;99.90;;;;;;5010023;28;20033;-71
2020/12/20 08:11:41;;;;;;;31.70;14.00;;;0.30;99.90;;;;;;5011005;28;20512;-71
2020/12/20 08:14:09;;;;;;;33.13;14.07;;;0.30;99.90;;;;;;5009680;28;20034;-71
2020/12/20 08:16:37;;;;;;;22.15;12.10;;;0.40;99.90;;;;;;5012218;28;20096;-71
2020/12/20 08:19:08;;;;;;;28.65;13.15;;;0.30;99.90;;;;;;5008738;28;20026;-71
2020/12/20 08:21:46;;;;;;;22.73;12.88;;;0.40;99.90;;;;;;5013672;28;20529;-71
2020/12/20 08:24:13;;;;;;;27.90;12.57;;;0.50;99.90;;;;;;5027613;23;21487;-76
2020/12/20 08:26:40;;;;;;;29.83;14.20;;;0.70;99.90;;;;;;5015837;28;20440;-75
2020/12/20 08:29:06;;;;;;;25.83;12.95;;;0.70;99.90;;;;;;5014892;28;20109;-76
2020/12/20 08:31:34;;;;;;;24.60;12.40;;;0.40;99.90;;;;;;5014380;28;20037;-76
2020/12/20 08:34:00;;;;;;;25.27;13.98;;;0.30;99.90;;;;;;5015899;28;20393;-75
2020/12/20 08:36:27;;;;;;;27.50;14.05;;;0.40;99.90;;;;;;5014225;28;20037;-75
2020/12/20 08:38:54;;;;;;;27.00;14.45;;;0.50;99.90;;;;;;5014033;28;20022;-75
2020/12/20 08:41:22;;;;;;;22.60;13.52;;;0.30;99.90;;;;;;4998222;28;20072;-75
2020/12/20 08:43:48;;;;;;;23.63;12.85;;;0.60;99.90;;;;;;5014281;28;20056;-77
2020/12/20 08:46:30;;;;;;;21.17;11.63;;;0.80;99.90;;;;;;5012915;28;20057;-76
2020/12/20 08:49:09;;;;;;;15.75;10.75;;;0.90;99.90;;;;;;5014018;28;20089;-77
2020/12/20 08:51:35;;;;;;;21.38;13.15;;;1.10;99.90;;;;;;5014169;28;20050;-76
2020/12/20 08:54:01;;;;;;;20.85;13.20;;;1.20;99.90;;;;;;5014954;28;20073;-76
2020/12/20 08:56:26;;;;;;;18.20;12.07;;;1.30;99.90;;;;;;5015059;28;20101;-76
2020/12/20 08:58:52;;;;;;;22.08;13.10;;;1.20;99.90;;;;;;5013145;28;20025;-79
2020/12/20 09:01:18;;;;;;;22.27;12.25;;;1.40;99.90;;;;;;5015311;28;20025;-75
2020/12/20 09:03:43;;;;;;;19.50;12.52;;;1.50;99.90;;;;;;5013902;28;20033;-75
2020/12/20 09:06:15;;;;;;;20.13;12.82;;;1.70;99.90;;;;;;5013184;28;20405;-76
2020/12/20 09:08:41;;;;;;;17.30;11.77;;;1.80;99.90;;;;;;5014054;28;20026;-76
2020/12/20 09:11:22;;;;;;;20.85;12.25;;;1.90;99.90;;;;;;5014283;28;20385;-75
2020/12/20 09:13:48;;;;;;;20.20;11.48;;;1.90;99.90;;;;;;5013176;28;20021;-75
2020/12/20 09:16:14;;;;;;;20.65;12.30;;;2.10;99.90;;;;;;5013883;28;20053;-76
2020/12/20 09:18:39;;;;;;;21.52;12.73;;;2.30;99.90;;;;;;5014259;28;20022;-76
2020/12/20 09:21:05;;;;;;;25.60;12.48;;;2.10;99.90;;;;;;5014019;28;20037;-75
2020/12/20 09:23:31;;;;;;;20.23;12.68;;;2.10;99.90;;;;;;5012730;28;20382;-75
2020/12/20 09:26:01;;;;;;;21.45;13.07;;;1.90;99.90;;;;;;5013282;28;20065;-75
2020/12/20 09:28:29;;;;;;;20.55;12.40;;;1.80;99.90;;;;;;5012836;28;20114;-76
2020/12/20 09:30:56;;;;;;;21.55;13.50;;;1.90;99.90;;;;;;5012521;28;20493;-76
2020/12/20 09:33:38;;;;;;;22.55;12.45;;;1.70;99.90;;;;;;5013922;28;20026;-76
2020/12/20 09:36:14;;;;;;;24.55;13.50;;;1.80;99.90;;;;;;5012414;28;20037;-76
2020/12/20 09:38:47;;;;;;;26.23;14.68;;;2.00;99.90;;;;;;5014312;28;20067;-76
2020/12/20 09:41:13;;;;;;;21.27;13.07;;;2.00;99.90;;;;;;5013705;28;20286;-76
2020/12/20 09:43:40;;;;;;;19.30;12.00;;;1.90;99.90;;;;;;5012399;28;20091;-75
2020/12/20 09:46:07;;;;;;;25.45;11.73;;;1.80;99.90;;;;;;5013552;28;20416;-76
2020/12/20 09:48:33;;;;;;;19.58;12.20;;;2.00;99.90;;;;;;5012278;28;20026;-74
2020/12/20 09:50:59;;;;;;;17.52;11.23;;;2.60;99.90;;;;;;5013840;28;20093;-76
2020/12/20 09:53:25;;;;;;;19.00;12.30;;;3.30;99.90;;;;;;5013412;28;20413;-76
2020/12/20 09:55:50;;;;;;;29.13;15.88;;;3.50;99.00;;;;;;5013760;28;20018;-76
2020/12/20 09:58:17;;;;;;;22.55;13.63;;;3.30;97.10;;;;;;5012039;28;20113;-75
2020/12/20 10:00:44;;;;;;;17.55;12.38;;;3.20;96.30;;;;;;5013772;28;20045;-76
2020/12/20 10:03:11;;;;;;;19.50;13.02;;;3.30;97.30;;;;;;5013707;28;20018;-76
2020/12/20 10:05:39;;;;;;;20.63;12.07;;;3.60;97.70;;;;;;5013938;28;20076;-74
2020/12/20 10:08:06;;;;;;;19.25;11.43;;;3.80;94.30;;;;;;5013865;28;20105;-76
2020/12/20 10:10:32;;;;;;;19.83;11.00;;;3.50;94.30;;;;;;5013810;28;20025;-74
2020/12/20 10:12:58;;;;;;;19.80;11.88;;;3.20;95.60;;;;;;5013093;28;20353;-75
2020/12/20 10:15:24;;;;;;;19.83;12.32;;;3.20;96.70;;;;;;5012536;28;20068;-75
2020/12/20 10:17:51;;;;;;;21.38;12.05;;;3.30;98.70;;;;;;5011748;28;20030;-75
2020/12/20 10:20:17;;;;;;;17.65;11.07;;;3.20;98.10;;;;;;5012948;28;20037;-76
2020/12/20 10:22:43;;;;;;;16.52;10.80;;;3.40;98.10;;;;;;5013077;28;20537;-76
2020/12/20 10:25:09;;;;;;;15.25;10.10;;;4.00;96.00;;;;;;5011491;28;20108;-76
2020/12/20 10:27:34;;;;;;;24.17;15.27;;;4.50;93.60;;;;;;5011805;28;20108;-76
2020/12/20 10:30:00;;;;;;;21.20;13.20;;;4.50;92.10;;;;;;5011452;28;20524;-76
2020/12/20 10:32:26;;;;;;;18.75;12.88;;;4.40;91.90;;;;;;5013157;28;20053;-75
2020/12/20 10:34:52;;;;;;;21.75;13.45;;;4.00;92.60;;;;;;5012617;28;20312;-76
2020/12/20 10:37:17;;;;;;;22.33;14.40;;;4.10;94.00;;;;;;5011088;28;20113;-76
2020/12/20 10:39:43;;;;;;;20.38;13.63;;;4.10;93.70;;;;;;5010800;28;20511;-76
2020/12/20 10:42:15;;;;;;;24.58;15.38;;;4.00;94.50;;;;;;5013023;28;20026;-75
2020/12/20 10:44:42;;;;;;;23.63;15.18;;;3.80;94.40;;;;;;5013690;28;20026;-75
2020/12/20 10:47:08;;;;;;;23.10;15.38;;;3.70;93.80;;;;;;5000318;28;20030;-76
2020/12/20 10:49:35;;;;;;;20.95;13.90;;;3.20;95.40;;;;;;5012192;28;20164;-74
2020/12/20 10:52:01;;;;;;;23.23;14.18;;;2.90;97.90;;;;;;5012199;28;20033;-74
2020/12/20 10:54:29;;;;;;;22.55;14.55;;;2.70;99.90;;;;;;5012053;28;20288;-74
2020/12/20 10:56:59;;;;;;;25.35;15.43;;;2.60;99.90;;;;;;5012338;28;20036;-74
2020/12/20 10:59:30;;;;;;;26.23;15.02;;;2.40;99.90;;;;;;5011420;28;20033;-76
2020/12/20 11:01:57;;;;;;;24.13;15.88;;;2.40;99.90;;;;;;5010467;28;20030;-74
2020/12/20 11:04:23;;;;;;;25.70;15.25;;;2.40;99.90;;;;;;5010728;28;20026;-74
2020/12/20 11:06:53;;;;;;;26.10;16.65;;;2.40;99.90;;;;;;5010629;28;20033;-74
2020/12/20 11:09:19;;;;;;;25.15;15.85;;;2.50;99.90;;;;;;5011015;28;20022;-76
2020/12/20 11:11:45;;;;;;;27.33;16.77;;;2.70;99.90;;;;;;5011995;28;20690;-74
2020/12/20 11:14:10;;;;;;;26.15;15.73;;;2.90;99.90;;;;;;5011057;28;20029;-75
2020/12/20 11:16:36;;;;;;;32.97;19.20;;;3.10;99.90;;;;;;5012137;28;20030;-75
2020/12/20 11:19:02;;;;;;;32.70;18.73;;;3.10;99.90;;;;;;5011634;28;20053;-75
2020/12/20 11:21:28;;;;;;;33.15;19.27;;;3.00;99.90;;;;;;5011912;28;20114;-74
2020/12/20 11:23:53;;;;;;;34.05;19.10;;;2.80;99.90;;;;;;5011578;28;20034;-74
2020/12/20 11:26:21;;;;;;;26.55;16.80;;;2.50;99.90;;;;;;5011949;28;20092;-75
2020/12/20 11:28:50;;;;;;;22.77;14.80;;;2.40;99.90;;;;;;5011540;28;20070;-74
2020/12/20 11:31:21;;;;;;;24.92;14.10;;;2.60;99.90;;;;;;5010438;28;20484;-75
2020/12/20 11:33:47;;;;;;;23.08;13.45;;;2.70;99.90;;;;;;5011494;28;20032;-75
2020/12/20 11:36:23;;;;;;;24.17;14.40;;;2.70;99.90;;;;;;5010632;28;20100;-74
2020/12/20 11:38:51;;;;;;;27.15;15.45;;;2.60;99.90;;;;;;5009937;28;20117;-74
2020/12/20 11:41:24;;;;;;;24.85;13.68;;;2.60;99.90;;;;;;5010852;28;20105;-75
2020/12/20 11:43:51;;;;;;;23.88;15.18;;;2.80;99.90;;;;;;5011302;28;20025;-76
2020/12/20 11:46:17;;;;;;;27.52;13.80;;;3.00;99.90;;;;;;5011430;28;20393;-75
2020/12/20 11:48:43;;;;;;;22.52;14.88;;;2.90;99.90;;;;;;5010161;28;20032;-75
2020/12/20 11:51:10;;;;;;;23.38;15.10;;;2.80;99.90;;;;;;5010020;28;20022;-75
2020/12/20 11:53:37;;;;;;;22.13;15.35;;;2.70;99.90;;;;;;5011664;28;20501;-76
2020/12/20 11:56:08;;;;;;;23.52;14.85;;;2.60;99.90;;;;;;5011730;28;20053;-76
2020/12/20 11:58:34;;;;;;;24.83;14.90;;;2.70;99.90;;;;;;5010414;28;20029;-75
2020/12/20 12:00:59;;;;;;;25.85;15.98;;;2.60;99.90;;;;;;5009893;28;20025;-75
2020/12/20 12:03:25;;;;;;;24.48;15.65;;;2.90;99.90;;;;;;5011294;28;20129;-76
2020/12/20 12:05:52;;;;;;;28.20;16.83;;;2.80;99.90;;;;;;5010945;28;20030;-75
2020/12/20 12:08:17;;;;;;;24.92;14.80;;;3.00;99.90;;;;;;5010458;28;20128;-76
2020/12/20 12:10:46;;;;;;;25.45;15.85;;;3.00;99.90;;;;;;5011191;28;20030;-75
2020/12/20 12:13:13;;;;;;;25.23;15.10;;;3.10;99.90;;;;;;5010147;28;20097;-76
2020/12/20 12:15:39;;;;;;;27.58;17.05;;;3.30;99.90;;;;;;5011355;28;20034;-76
2020/12/20 12:18:05;;;;;;;30.35;17.13;;;3.50;99.90;;;;;;5011181;28;20084;-76
2020/12/20 12:20:31;;;;;;;24.25;16.85;;;3.60;99.90;;;;;;5010828;28;20132;-75
2020/12/20 12:22:57;;;;;;;27.02;16.38;;;3.50;99.90;;;;;;5010966;28;20425;-75
2020/12/20 12:25:23;;;;;;;26.23;16.17;;;3.20;99.90;;;;;;5009739;28;20045;-75
2020/12/20 12:27:49;;;;;;;26.60;16.58;;;3.20;99.90;;;;;;5009487;28;20073;-75
2020/12/20 12:30:15;;;;;;;24.13;14.57;;;3.30;99.90;;;;;;5011908;28;20037;-75
2020/12/20 12:32:40;;;;;;;26.80;15.95;;;3.40;99.90;;;;;;5010940;28;20022;-75
2020/12/20 12:35:07;;;;;;;29.40;16.58;;;3.20;99.90;;;;;;5011021;28;20026;-75